Airfield :
LOGIN :

Register | Disclaimer

   EN    FR    IT 

 










Legend :    VFR   Marginal VFR   IFR   Intensive IFR   Very Intensive IFR
Visi :
Ceiling :
>= 8 km
>= 3000ft
5 to 8 km
1000 to 3000 ft
1500m to 5 km
500 to 1000 ft
800 to 1500m
200 to 500 ft
< 800m
< 200 ft
Symbols :   Thunderstorms  Fog  Heavy snow  Heavy precipitations  Wind > 20 kt
SIGMETs :     Misc.  Thunderstorms  Icing  Turbulence  Mountain Waves  Volcanic Ashes






- Airport Elevation : 13 ft
- IATA code : LYX


EGMD - Lydd

CURRENT METAR :
  • 020020Z AUTO 01006KT 2400 BR NCD 03/02 Q1030

EXPIRED METARs :
  • 012350Z AUTO 03007KT 1900 BR NCD 02/01 Q1030
  • 012320Z AUTO 36007KT 2600 HZ NCD 03/02 Q1030
  • 012250Z AUTO 34006KT 3200 HZ BKN007/// 04/03 Q1030
  • 012220Z AUTO 05013KT 6000 OVC007/// 06/05 Q1030
  • 012150Z AUTO 05010KT 5000 HZ OVC007/// 06/05 Q1030

TAF TAF EGMD
Valid from the 02 at 00:00 until the 02 at 09:00 UTC


012256Z 0200/0209 01007KT 6000 SCT007
TEMPO 0200/0209 3000 BR BKN007
PROB30
TEMPO 0200/0206 1300 BKN003
ATIS : +44 1797 322 422



MET'MAP, your aeronautical weather chart ! - Copyright ORBIFLY December 2007 - Disclaimer

ORBIFLY MET'MAP TEAM :

Programming & Development : Alexandra Zaïnal
Concept & original design : Baudouin d'Aumeries
Assistance for programming : Marc-Olivier Méhu
Technical & hardware support : Manuel Goepfert

Contact : metmap@orbifly.com




SOURCES & CREDITS :

   NOAA